Arminto, WY (82630)

6:42 PM MDT on September 22, 2014 (GMT -0600)
Natrona County International | Change Station
CLOSE
Current Station
Airport
Location: Casper,
Elevation: 5289 ft
Nearby Weather Stations

Elev 5289 ft 42.90 °N, 106.47 °W | Updated 49 minutes ago

Partly Cloudy
Partly Cloudy
69 °F
Feels Like 69 °F
N
14
Wind Variable Wind from SSW
Gusts 22 mph

Today
High -- | Low -- °F
--% Chance of Precip.
Yesterday
High -- | Low -- °F
Precip. -- in
6:56 AM 7:06 PM
Waning Crescent, 1% visible
Pressure 29.88 in
Visibility 10.0 miles
Clouds Clear
Dew Point 44 °F
Humidity 40%
Rainfall 0.00 in
Snow Depth 0 in , 0 in , 0 in
UV 1 out of 12
Pollen 5.20 out of 12
Air Quality Not available.
Flu Activity Not available.
METAR KCPR 222353Z 20012G19KT 10SM CLR 21/07 A3003 RMK AO2 PK WND 21026/2255 SLP119 T02060067 10233 20189 58013

More Conditions Fewer Conditions

Pressure 29.88 in
Visibility 10.0 miles
Clouds Clear
Dew Point 44 °F
Humidity 40%
Rainfall 0.00 in
Snow Depth 0 in , 0 in , 0 in
UV 1 out of 12
Pollen 5.20 out of 12
Air Quality Not available.
Flu Activity Not available.
METAR KCPR 222353Z 20012G19KT 10SM CLR 21/07 A3003 RMK AO2 PK WND 21026/2255 SLP119 T02060067 10233 20189 58013

More Conditions Fewer Conditions

10-Day Weather Forecast

Almanac

Astronomy

Sep. 22, 2014 Rise Set
Actual Time 6:56 AM MDT 7:06 PM MDT
Civil Twilight 6:28 AM MDT 7:35 PM MDT
Nautical Twilight 5:55 AM MDT 8:08 PM MDT
Astronomical Twilight 5:21 AM MDT 8:42 PM MDT
Moon 5:26 AM MDT (9/22) 6:16 PM MDT (9/22)
Length of Visible Light 13h 06m
Length of Day
12h 09m
Tomorrow will be 2m 56s shorter.
Waning Crescent, 1% of the Moon is Illuminated
Today
Waning Crescent
Sep 24
New
Oct 1
First Quarter
Oct 8
Full
Oct 15
Last Quarter

Today's Extremes

State Highs State Lows

Community

WunderPhotos

Upload Photos

1,755,575 photos uploaded!

Nearby

Snow Depth

Station Depth Elevation
South Brush Creek 0 in 8440 ft
North French Creek 0 in 10130 ft
Base Camp 0 in 7030 ft
Salt River Summit 0 in 7600 ft
Phillips Bench 0 in 8200 ft

Earthquake Activity

City Distance Mag. Time & Date
No recent earthquake activity has been reported nearby.
Minimum magnitude displayed is 2.5.

Coastal Water Temperatures

Place Temperature
No Stations Reporting

Nearby Weather Stations